Latest Weather Observations for Cleve Airport

IDS60801

Issued at 11:35 am CST Tuesday 29 July 2014 (issued every 30 minutes, with the page automatically refreshed every 10 minutes)

About weather observations | Map of weather stations | Latest weather observations for SA | Other Formats
Station Details ID: 018116 Name: CLEVE AERODROME Lat: -33.71 Lon: 136.50 Height: 175.0 m
Data from the previous 72 hours. | See also: Recent months at Cleve Airport
Date/Time
CST
Temp
°C
App
Temp
°C
Dew
Point
Rel
Hum
%
Delta-T
°C
Wind Press
QNH
hPa
Press
MSL
hPa
Rain
since 9 am
mm
Dir
 
Spd
km/h
Gust
km/h
Spd
kts
Gust
kts
29/11:30am 16.1 9.2 11.7 75 2.4 WNW 39 57 21 31 1018.5 - 0.0
29/11:03am 15.6 9.0 11.2 75 2.4 WNW 37 63 20 34 1018.4 - 0.0
29/11:00am 15.7 9.5 11.5 76 2.3 WNW 35 50 19 27 1018.5 - 0.0
29/10:32am 14.7 9.0 11.3 80 1.8 WNW 32 50 17 27 1018.8 - 0.0
29/10:30am 14.7 9.1 11.5 81 1.7 WNW 32 48 17 26 1018.7 - 0.0
29/10:00am 14.3 8.6 11.1 81 1.7 WNW 32 46 17 25 1018.8 - 0.0
29/09:30am 14.0 8.0 10.8 81 1.7 WNW 33 50 18 27 1018.6 - 0.0
29/09:19am 14.0 8.1 10.6 80 1.8 WNW 32 52 17 28 1018.6 - 0.0
29/09:00am 14.0 8.1 10.6 80 1.8 WNW 32 44 17 24 1018.5 1018.6 0.0
29/08:30am 13.6 7.6 10.2 80 1.8 NW 32 46 17 25 1018.2 - 0.0
29/08:00am 13.0 7.8 10.2 83 1.5 NW 28 39 15 21 1018.2 - 0.0
29/07:30am 12.0 7.1 9.9 87 1.1 NW 26 35 14 19 1017.9 - 0.0
29/07:00am 12.0 6.8 10.1 88 1.0 NW 28 41 15 22 1017.7 - 0.0
29/06:30am 12.0 7.1 10.1 88 1.0 NW 26 41 14 22 1017.1 - 0.0
29/06:00am 12.0 7.5 10.1 88 1.0 WNW 24 39 13 21 1017.1 1017.3 0.0
29/05:30am 11.9 6.5 9.6 86 1.2 NW 28 43 15 23 1016.8 - 0.0
29/05:18am 12.2 6.9 9.8 85 1.2 WNW 28 46 15 25 1016.8 - 0.0
29/05:00am 12.1 6.8 9.8 86 1.2 WNW 28 43 15 23 1016.7 - 0.0
29/04:30am 12.6 6.3 9.8 83 1.4 WNW 33 43 18 23 1016.4 - 0.0
29/04:00am 12.0 6.1 9.2 83 1.4 WNW 30 44 16 24 1016.6 - 0.0
29/03:46am 12.0 6.1 9.2 83 1.4 WNW 30 48 16 26 1016.5 - 0.0
29/03:30am 12.1 5.8 8.9 81 1.6 WNW 32 48 17 26 1016.4 - 0.0
29/03:11am 12.4 5.9 8.9 79 1.8 WNW 33 52 18 28 1016.6 - 0.0
29/03:00am 12.4 5.8 8.7 78 1.9 WNW 33 46 18 25 1016.7 1016.8 0.0
29/02:49am 12.6 7.0 8.7 77 2.0 WNW 28 46 15 25 1016.5 - 0.0
29/02:30am 12.2 6.0 7.9 75 2.1 WNW 30 43 16 23 1016.5 - 0.0
29/02:00am 12.7 5.9 7.6 71 2.5 WNW 33 46 18 25 1016.5 - 0.0
29/01:30am 12.7 6.6 6.7 67 2.9 WNW 28 41 15 22 1016.9 - 0.0
29/01:09am 13.1 6.6 6.5 64 3.2 WNW 30 48 16 26 1016.8 - 0.0
29/01:00am 12.8 6.7 6.6 66 3.0 WNW 28 39 15 21 1016.9 - 0.0
29/12:30am 12.9 7.0 6.0 63 3.3 WNW 26 43 14 23 1017.2 - 0.0
29/12:00am 13.0 6.6 5.4 60 3.6 WNW 28 37 15 20 1017.2 1017.4 0.0
 
Date/Time
CST
Temp
°C
App
Temp
°C
Dew
Point
Rel
Hum
%
Delta-T
°C
Wind Press
QNH
hPa
Press
MSL
hPa
Rain
since 9 am
mm
Dir
 
Spd
km/h
Gust
km/h
Spd
kts
Gust
kts
28/11:30pm 12.9 7.2 5.1 59 3.6 WNW 24 41 13 22 1017.6 - 0.0
28/11:00pm 12.9 6.8 4.6 57 3.8 WNW 26 37 14 20 1017.8 - 0.0
28/10:30pm 12.5 6.8 4.7 59 3.6 NW 24 33 13 18 1017.7 - 0.0
28/10:00pm 12.6 7.1 5.8 63 3.2 NW 24 32 13 17 1017.9 - 0.0
28/09:30pm 12.2 7.6 6.7 69 2.6 NW 20 28 11 15 1018.0 - 0.0
28/09:00pm 12.2 7.6 6.3 67 2.8 NW 20 24 11 13 1017.9 1018.1 0.0
28/08:30pm 12.1 7.7 6.6 69 2.6 NW 19 26 10 14 1017.8 - 0.0
28/08:00pm 12.1 7.7 6.6 69 2.6 NW 19 24 10 13 1017.6 - 0.0
28/07:30pm 12.3 8.3 6.8 69 2.7 NW 17 20 9 11 1017.6 - 0.0
28/07:00pm 12.5 8.6 7.2 70 2.6 NW 17 22 9 12 1017.3 - 0.0
28/06:30pm 12.9 9.0 6.9 67 2.9 NW 17 22 9 12 1017.2 - 0.0
28/06:00pm 13.5 9.7 7.5 67 3.0 NW 17 22 9 12 1016.9 1017.1 0.0
28/05:30pm 14.4 10.4 8.1 66 3.2 WNW 19 26 10 14 1016.8 - 0.0
28/05:00pm 15.3 11.4 8.5 64 3.5 WNW 19 26 10 14 1016.8 - 0.0
28/04:30pm 15.8 11.9 8.5 62 3.7 WNW 19 26 10 14 1016.6 - 0.0
28/04:00pm 15.7 11.7 8.4 62 3.7 NW 19 30 10 16 1016.5 - 0.0
28/03:30pm 16.3 11.8 8.5 60 4.0 WNW 22 32 12 17 1016.5 - 0.0
28/03:00pm 16.4 11.5 8.6 60 4.0 WNW 24 32 13 17 1016.7 1016.8 0.0
28/02:30pm 16.5 11.9 8.2 58 4.2 WNW 22 32 12 17 1016.7 - 0.0
28/02:00pm 15.8 11.3 8.5 62 3.7 WNW 22 32 12 17 1016.8 - 0.0
28/01:30pm 15.3 10.1 9.0 66 3.3 WNW 26 39 14 21 1017.3 - 0.0
28/01:00pm 15.4 10.5 11.4 77 2.2 WNW 28 39 15 21 1017.8 - 0.0
28/12:30pm 14.9 10.6 11.9 82 1.6 W 26 37 14 20 1018.2 - 0.0
28/12:00pm 14.8 10.9 12.1 84 1.5 W 24 37 13 20 1018.5 1018.6 0.0
28/11:30am 14.5 11.4 12.2 86 1.3 WNW 20 33 11 18 1018.6 - 0.0
28/11:00am 14.1 10.2 12.0 87 1.1 NW 24 30 13 16 1018.9 - 0.0
28/10:30am 13.9 11.3 11.9 88 1.1 NW 17 24 9 13 1019.1 - 0.0
28/10:00am 13.8 10.7 11.7 87 1.1 NW 19 26 10 14 1019.0 - 0.0
28/09:30am 13.6 10.8 11.5 87 1.1 NW 17 24 9 13 1019.1 - 0.0
28/09:00am 13.4 10.3 11.5 88 1.0 NW 19 26 10 14 1019.0 1019.1 0.0
28/08:30am 12.8 9.6 11.4 91 0.7 NW 19 28 10 15 1019.1 - 0.0
28/08:00am 12.7 9.8 11.1 90 0.8 NW 17 22 9 12 1018.8 - 0.0
28/07:30am 12.6 10.1 11.2 91 0.7 NNW 15 22 8 12 1018.5 - 0.0
28/07:00am 12.6 10.0 10.8 89 0.9 NW 15 20 8 11 1018.5 - 0.0
28/06:30am 12.7 9.7 10.6 87 1.1 NW 17 22 9 12 1018.2 - 0.0
28/06:00am 12.6 9.8 10.1 85 1.3 NW 15 20 8 11 1018.2 1018.4 0.0
28/05:30am 12.4 9.4 9.4 82 1.5 NW 15 22 8 12 1018.4 - 0.0
28/05:00am 12.5 9.5 9.3 81 1.6 NW 15 17 8 9 1018.2 - 0.0
28/03:00am 12.3 8.8 7.2 71 2.5 NW 15 20 8 11 1018.6 1018.7 0.0
28/02:00am 13.2 8.5 5.1 58 3.8 WNW 19 26 10 14 1018.4 - 0.0
28/01:30am 14.1 9.3 4.4 52 4.5 WNW 19 26 10 14 1018.1 - 0.0
 
Date/Time
CST
Temp
°C
App
Temp
°C
Dew
Point
Rel
Hum
%
Delta-T
°C
Wind Press
QNH
hPa
Press
MSL
hPa
Rain
since 9 am
mm
Dir
 
Spd
km/h
Gust
km/h
Spd
kts
Gust
kts
27/09:00pm 15.8 11.2 6.3 53 4.6 NNW 20 28 11 15 1019.2 1019.3 0.0
27/08:30pm 15.9 11.8 6.3 53 4.7 NNW 17 22 9 12 1019.3 - 0.0
27/08:00pm 16.0 12.0 6.7 54 4.6 NW 17 22 9 12 1019.4 - 0.0
27/07:30pm 16.2 12.2 6.6 53 4.7 NW 17 22 9 12 1019.4 - 0.0
27/07:00pm 16.3 12.3 6.7 53 4.8 NW 17 22 9 12 1019.4 - 0.0
27/06:30pm 16.5 12.4 6.1 50 5.1 NW 17 22 9 12 1019.1 - 0.0
27/06:00pm 16.2 12.6 6.9 54 4.6 NW 15 19 8 10 1019.0 1019.1 0.0
27/05:30pm 16.7 12.9 7.4 54 4.7 WNW 17 24 9 13 1018.8 - 0.0
27/05:00pm 17.6 13.2 6.5 48 5.5 NW 19 24 10 13 1018.5 - 0.0
27/04:30pm 17.8 13.9 7.0 49 5.4 NW 17 26 9 14 1018.5 - 0.0
27/04:00pm 18.5 14.1 6.7 46 5.9 NW 19 33 10 18 1018.5 - 0.0
27/03:30pm 19.3 13.4 5.7 41 6.8 NW 26 37 14 20 1018.5 - 0.0
27/03:00pm 20.1 13.6 4.6 36 7.6 NNW 28 43 15 23 1018.2 1018.4 0.0
27/02:42pm 19.6 13.1 4.5 37 7.3 NW 28 48 15 26 1018.2 - 0.0
27/02:30pm 19.8 12.7 6.5 42 6.7 NNW 33 46 18 25 1018.4 - 0.0
27/02:16pm 19.6 13.1 6.7 43 6.5 NNW 30 48 16 26 1018.5 - 0.0
27/02:00pm 19.4 12.6 6.8 44 6.4 NNW 32 46 17 25 1018.6 - 0.0
27/01:55pm 19.2 13.0 6.3 43 6.5 NNW 28 46 15 25 1018.6 - 0.0
27/01:30pm 19.0 12.9 6.5 44 6.3 NNW 28 41 15 22 1019.2 - 0.0
27/01:01pm 18.6 11.7 7.1 47 5.8 NNW 33 52 18 28 1019.6 - 0.0
27/01:00pm 18.5 11.1 6.7 46 5.9 NNW 35 52 19 28 1019.6 - 0.0
27/12:30pm 18.2 10.8 6.7 47 5.8 NNW 35 54 19 29 1020.3 - 0.0
27/12:29pm 18.2 11.2 6.7 47 5.8 NNW 33 54 18 29 1020.4 - 0.0
27/12:00pm 17.8 10.2 6.0 46 5.8 NNW 35 50 19 27 1020.8 1020.9 0.0
27/11:30am 17.3 10.1 5.9 47 5.6 NNW 33 52 18 28 1021.4 - 0.0
27/11:25am 17.3 10.3 5.9 47 5.6 NNW 32 52 17 28 1021.5 - 0.0
27/11:00am 17.1 10.5 6.0 48 5.5 NNW 30 44 16 24 1022.0 - 0.0
27/10:38am 16.8 10.1 5.4 47 5.5 NNW 30 48 16 26 1022.2 - 0.0
27/10:30am 16.7 10.1 6.2 50 5.2 NNW 30 41 16 22 1022.3 - 0.0
27/10:00am 15.8 8.7 5.4 50 5.0 NNW 32 46 17 25 1022.4 - 0.0
27/09:30am 15.2 7.9 5.4 52 4.7 N 33 48 18 26 1022.4 - 0.0
27/09:00am 14.2 7.0 4.8 53 4.4 NNW 32 44 17 24 1022.7 1022.9 0.0
27/08:44am 13.8 6.8 4.1 52 4.5 NNW 30 48 16 26 1022.9 - 0.0
27/08:30am 13.5 6.9 4.1 53 4.3 NNW 28 37 15 20 1023.1 - 0.0
27/08:00am 13.0 6.3 3.9 54 4.1 NNW 28 43 15 23 1023.2 - 0.0
27/07:30am 12.4 5.4 3.9 56 3.9 NNW 30 39 16 21 1022.7 - 0.0
27/07:00am 11.5 6.1 4.3 61 3.3 N 22 30 12 16 1022.3 - 0.0
27/06:30am 11.1 5.3 4.6 64 3.0 N 24 32 13 17 1022.0 - 0.0
27/06:00am 11.5 5.3 4.5 62 3.2 NNW 26 35 14 19 1021.7 1021.9 0.0
27/05:30am 11.7 5.6 4.7 62 3.2 NNW 26 41 14 22 1021.6 - 0.0
27/05:00am 11.7 5.2 4.9 63 3.1 N 28 39 15 21 1021.8 - 0.0
27/04:30am 11.9 5.1 5.1 63 3.2 N 30 39 16 21 1022.3 - 0.0
27/04:00am 11.7 5.8 5.8 67 2.8 N 26 39 14 21 1022.9 - 0.0
27/03:30am 11.4 6.7 5.9 69 2.6 N 20 30 11 16 1023.2 - 0.0
27/12:00am 11.5 8.0 7.0 74 2.2 NNW 15 20 8 11 1024.5 1024.6 0.0
 
Date/Time
CST
Temp
°C
App
Temp
°C
Dew
Point
Rel
Hum
%
Delta-T
°C
Wind Press
QNH
hPa
Press
MSL
hPa
Rain
since 9 am
mm
Dir
 
Spd
km/h
Gust
km/h
Spd
kts
Gust
kts
26/11:30pm 10.7 7.9 7.0 78 1.8 N 11 17 6 9 1024.6 - 0.0
26/10:00pm 10.0 6.9 7.3 83 1.3 N 13 17 7 9 1025.1 - 0.0
26/09:30pm 10.6 6.8 7.5 81 1.5 N 17 20 9 11 1025.4 - 0.0
26/09:00pm 10.4 7.0 7.6 83 1.3 N 15 19 8 10 1025.4 1025.5 0.0
26/08:30pm 10.4 7.7 7.5 82 1.4 NW 11 15 6 8 1025.4 - 0.0
26/08:00pm 9.6 6.9 7.5 87 1.0 NNW 11 13 6 7 1025.5 - 0.0
26/07:30pm 10.1 7.9 7.9 86 1.1 NW 9 11 5 6 1025.4 - 0.0
26/07:00pm 11.3 9.3 8.7 84 1.3 NNW 9 11 5 6 1025.4 - 0.0
26/06:30pm 12.3 10.1 9.3 82 1.5 N 11 11 6 6 1025.2 - 0.0
26/06:00pm 13.7 12.2 9.0 73 2.4 NNW 7 7 4 4 1025.2 1025.3 0.0
26/05:30pm 14.7 13.2 9.1 69 2.9 WNW 7 9 4 5 1025.1 - 0.0
26/05:00pm 15.5 13.7 9.4 67 3.2 NW 9 13 5 7 1025.0 - 0.0
26/04:30pm 16.4 14.0 8.6 60 4.0 WNW 11 19 6 10 1025.0 - 0.0
26/04:00pm 16.6 13.7 9.5 63 3.7 NW 15 20 8 11 1025.1 - 0.0
26/03:30pm 16.5 12.9 8.5 59 4.1 NW 17 22 9 12 1025.1 - 0.0
26/03:00pm 15.9 12.2 7.9 59 4.0 NW 17 24 9 13 1025.1 1025.2 0.0
26/02:30pm 16.4 12.9 8.6 60 4.0 NW 17 26 9 14 1025.1 - 0.0
26/02:00pm 16.4 12.2 7.6 56 4.4 NNW 19 26 10 14 1025.1 - 0.0
26/01:30pm 16.3 12.1 8.3 59 4.1 NNW 20 30 11 16 1025.4 - 0.0
26/01:00pm 15.8 11.7 7.8 59 4.0 NNW 19 30 10 16 1025.8 - 0.0
26/12:30pm 15.4 11.1 6.9 57 4.2 NNW 19 28 10 15 1026.4 - 0.0
26/12:00pm 15.4 11.7 7.9 61 3.8 NW 17 24 9 13 1026.9 1027.1 0.0

Other Formats:

Comma delimited format used in spreadsheet applications
http://www.bom.gov.au/fwo/IDS60801/IDS60801.94662.axf

JavaScript Object Notation format (JSON) in row-major order
http://www.bom.gov.au/fwo/IDS60801/IDS60801.94662.json